sensor_id;sensor_type;location;lat;lon;timestamp;temperature;humidity
33841;DHT22;20142;28.494;-16.312;2022-09-28T00:00:00;20.90;81.90
33841;DHT22;20142;28.494;-16.312;2022-09-28T00:05:01;20.80;82.20
33841;DHT22;20142;28.494;-16.312;2022-09-28T00:10:03;20.70;82.20
33841;DHT22;20142;28.494;-16.312;2022-09-28T00:15:06;20.70;82.40
33841;DHT22;20142;28.494;-16.312;2022-09-28T00:20:08;20.80;82.40
33841;DHT22;20142;28.494;-16.312;2022-09-28T00:25:10;20.70;82.60
33841;DHT22;20142;28.494;-16.312;2022-09-28T00:30:12;20.60;82.90
33841;DHT22;20142;28.494;-16.312;2022-09-28T00:35:16;20.70;83.30
33841;DHT22;20142;28.494;-16.312;2022-09-28T00:40:18;20.80;83.20
33841;DHT22;20142;28.494;-16.312;2022-09-28T00:45:21;20.80;83.40
33841;DHT22;20142;28.494;-16.312;2022-09-28T00:50:29;20.70;83.10
33841;DHT22;20142;28.494;-16.312;2022-09-28T01:00:53;20.80;83.60
33841;DHT22;20142;28.494;-16.312;2022-09-28T01:05:58;20.60;83.60
33841;DHT22;20142;28.494;-16.312;2022-09-28T01:11:00;20.60;83.70
33841;DHT22;20142;28.494;-16.312;2022-09-28T01:16:18;20.50;83.60
33841;DHT22;20142;28.494;-16.312;2022-09-28T01:21:36;20.50;84.00
33841;DHT22;20142;28.494;-16.312;2022-09-28T01:27:18;20.50;84.20
33841;DHT22;20142;28.494;-16.312;2022-09-28T01:37:51;20.50;83.90
33841;DHT22;20142;28.494;-16.312;2022-09-28T01:43:00;20.60;84.30
33841;DHT22;20142;28.494;-16.312;2022-09-28T01:48:05;20.50;84.20
33841;DHT22;20142;28.494;-16.312;2022-09-28T01:53:21;20.50;84.50
33841;DHT22;20142;28.494;-16.312;2022-09-28T01:58:33;20.50;84.30
33841;DHT22;20142;28.494;-16.312;2022-09-28T02:03:53;20.40;84.60
33841;DHT22;20142;28.494;-16.312;2022-09-28T02:09:14;20.50;84.60
33841;DHT22;20142;28.494;-16.312;2022-09-28T02:19:30;20.40;84.60
33841;DHT22;20142;28.494;-16.312;2022-09-28T02:24:45;20.50;84.90
33841;DHT22;20142;28.494;-16.312;2022-09-28T02:29:53;20.40;85.00
33841;DHT22;20142;28.494;-16.312;2022-09-28T02:34:55;20.40;84.70
33841;DHT22;20142;28.494;-16.312;2022-09-28T02:39:57;20.40;84.70
33841;DHT22;20142;28.494;-16.312;2022-09-28T02:50:54;20.30;84.60
33841;DHT22;20142;28.494;-16.312;2022-09-28T03:07:31;20.30;85.50
33841;DHT22;20142;28.494;-16.312;2022-09-28T03:12:36;20.30;85.10
33841;DHT22;20142;28.494;-16.312;2022-09-28T03:17:38;20.30;85.20
33841;DHT22;20142;28.494;-16.312;2022-09-28T03:22:40;20.40;85.50
33841;DHT22;20142;28.494;-16.312;2022-09-28T03:27:42;20.40;85.60
33841;DHT22;20142;28.494;-16.312;2022-09-28T03:32:44;20.40;85.50
33841;DHT22;20142;28.494;-16.312;2022-09-28T03:37:45;20.40;85.70
33841;DHT22;20142;28.494;-16.312;2022-09-28T03:42:47;20.40;85.90
33841;DHT22;20142;28.494;-16.312;2022-09-28T03:47:49;20.50;86.20
33841;DHT22;20142;28.494;-16.312;2022-09-28T03:52:51;20.60;86.20
33841;DHT22;20142;28.494;-16.312;2022-09-28T03:57:53;20.60;86.20
33841;DHT22;20142;28.494;-16.312;2022-09-28T04:02:56;20.60;86.40
33841;DHT22;20142;28.494;-16.312;2022-09-28T04:07:57;20.60;86.30
33841;DHT22;20142;28.494;-16.312;2022-09-28T04:12:59;20.60;86.30
33841;DHT22;20142;28.494;-16.312;2022-09-28T04:18:00;20.70;86.50
33841;DHT22;20142;28.494;-16.312;2022-09-28T04:23:02;20.70;86.60
33841;DHT22;20142;28.494;-16.312;2022-09-28T04:28:04;20.80;86.40
33841;DHT22;20142;28.494;-16.312;2022-09-28T04:33:24;20.80;86.70
33841;DHT22;20142;28.494;-16.312;2022-09-28T04:38:26;20.80;86.60
33841;DHT22;20142;28.494;-16.312;2022-09-28T04:43:27;20.70;86.70
33841;DHT22;20142;28.494;-16.312;2022-09-28T04:48:29;20.60;86.60
33841;DHT22;20142;28.494;-16.312;2022-09-28T04:53:31;20.70;86.60
33841;DHT22;20142;28.494;-16.312;2022-09-28T04:58:34;20.60;86.30
33841;DHT22;20142;28.494;-16.312;2022-09-28T05:03:36;20.50;86.10
33841;DHT22;20142;28.494;-16.312;2022-09-28T05:08:38;20.40;86.20
33841;DHT22;20142;28.494;-16.312;2022-09-28T05:13:42;20.50;86.80
33841;DHT22;20142;28.494;-16.312;2022-09-28T05:18:45;20.50;86.80
33841;DHT22;20142;28.494;-16.312;2022-09-28T05:23:47;20.60;86.50
33841;DHT22;20142;28.494;-16.312;2022-09-28T05:28:49;20.70;86.60
33841;DHT22;20142;28.494;-16.312;2022-09-28T05:33:51;20.60;86.70
33841;DHT22;20142;28.494;-16.312;2022-09-28T05:38:53;20.70;86.90
33841;DHT22;20142;28.494;-16.312;2022-09-28T05:43:55;20.70;86.40
33841;DHT22;20142;28.494;-16.312;2022-09-28T05:48:57;20.70;86.80
33841;DHT22;20142;28.494;-16.312;2022-09-28T05:54:00;20.60;86.30
33841;DHT22;20142;28.494;-16.312;2022-09-28T05:59:02;20.60;85.90
33841;DHT22;20142;28.494;-16.312;2022-09-28T06:04:05;20.60;86.30
33841;DHT22;20142;28.494;-16.312;2022-09-28T06:09:08;20.70;86.30
33841;DHT22;20142;28.494;-16.312;2022-09-28T06:14:09;20.80;86.50
33841;DHT22;20142;28.494;-16.312;2022-09-28T06:19:13;20.80;86.90
33841;DHT22;20142;28.494;-16.312;2022-09-28T06:24:15;20.90;86.00
33841;DHT22;20142;28.494;-16.312;2022-09-28T06:29:17;21.00;85.80
33841;DHT22;20142;28.494;-16.312;2022-09-28T06:34:19;21.00;85.80
33841;DHT22;20142;28.494;-16.312;2022-09-28T06:39:21;21.00;85.80
33841;DHT22;20142;28.494;-16.312;2022-09-28T06:44:23;21.10;86.00
33841;DHT22;20142;28.494;-16.312;2022-09-28T06:49:25;21.10;85.90
33841;DHT22;20142;28.494;-16.312;2022-09-28T06:54:30;21.10;85.40
33841;DHT22;20142;28.494;-16.312;2022-09-28T06:59:31;21.10;85.60
33841;DHT22;20142;28.494;-16.312;2022-09-28T07:04:33;21.10;85.60
33841;DHT22;20142;28.494;-16.312;2022-09-28T07:09:35;21.20;85.40
33841;DHT22;20142;28.494;-16.312;2022-09-28T07:14:37;21.20;85.10
33841;DHT22;20142;28.494;-16.312;2022-09-28T07:19:40;21.30;85.50
33841;DHT22;20142;28.494;-16.312;2022-09-28T07:24:41;21.40;85.20
33841;DHT22;20142;28.494;-16.312;2022-09-28T07:29:44;21.40;85.00
33841;DHT22;20142;28.494;-16.312;2022-09-28T07:34:46;21.40;85.00
33841;DHT22;20142;28.494;-16.312;2022-09-28T07:39:48;21.60;84.80
33841;DHT22;20142;28.494;-16.312;2022-09-28T07:45:09;21.70;84.60
33841;DHT22;20142;28.494;-16.312;2022-09-28T07:50:11;21.70;84.40
33841;DHT22;20142;28.494;-16.312;2022-09-28T07:55:13;21.70;84.50
33841;DHT22;20142;28.494;-16.312;2022-09-28T08:00:15;21.70;84.80
33841;DHT22;20142;28.494;-16.312;2022-09-28T08:05:17;21.80;84.10
33841;DHT22;20142;28.494;-16.312;2022-09-28T08:10:19;21.80;84.10
33841;DHT22;20142;28.494;-16.312;2022-09-28T08:15:21;21.90;84.10
33841;DHT22;20142;28.494;-16.312;2022-09-28T08:20:22;22.10;84.00
33841;DHT22;20142;28.494;-16.312;2022-09-28T08:25:50;22.40;83.80
33841;DHT22;20142;28.494;-16.312;2022-09-28T08:30:54;22.50;84.10
33841;DHT22;20142;28.494;-16.312;2022-09-28T08:35:57;22.70;83.80
33841;DHT22;20142;28.494;-16.312;2022-09-28T08:46:45;23.00;83.40
33841;DHT22;20142;28.494;-16.312;2022-09-28T08:52:01;23.10;82.80
33841;DHT22;20142;28.494;-16.312;2022-09-28T08:57:21;23.30;82.90
33841;DHT22;20142;28.494;-16.312;2022-09-28T09:02:31;23.40;82.70
33841;DHT22;20142;28.494;-16.312;2022-09-28T09:13:22;23.70;80.70
33841;DHT22;20142;28.494;-16.312;2022-09-28T09:18:41;23.80;80.50
33841;DHT22;20142;28.494;-16.312;2022-09-28T09:24:09;23.90;80.10
33841;DHT22;20142;28.494;-16.312;2022-09-28T09:46:14;24.30;77.80
33841;DHT22;20142;28.494;-16.312;2022-09-28T09:56:52;24.30;77.40
33841;DHT22;20142;28.494;-16.312;2022-09-28T10:01:57;24.30;77.60
33841;DHT22;20142;28.494;-16.312;2022-09-28T10:07:03;24.30;76.80
33841;DHT22;20142;28.494;-16.312;2022-09-28T10:12:08;24.30;77.00
33841;DHT22;20142;28.494;-16.312;2022-09-28T10:17:15;24.20;76.70
33841;DHT22;20142;28.494;-16.312;2022-09-28T10:22:22;24.20;76.50
33841;DHT22;20142;28.494;-16.312;2022-09-28T10:27:29;24.30;76.70
33841;DHT22;20142;28.494;-16.312;2022-09-28T10:32:38;24.50;76.30
33841;DHT22;20142;28.494;-16.312;2022-09-28T10:48:54;24.50;75.20
33841;DHT22;20142;28.494;-16.312;2022-09-28T10:54:01;24.50;75.30
33841;DHT22;20142;28.494;-16.312;2022-09-28T11:04:37;24.50;74.80
33841;DHT22;20142;28.494;-16.312;2022-09-28T11:09:44;24.50;75.40
33841;DHT22;20142;28.494;-16.312;2022-09-28T11:14:53;24.60;75.40
33841;DHT22;20142;28.494;-16.312;2022-09-28T11:19:59;24.70;74.20
33841;DHT22;20142;28.494;-16.312;2022-09-28T11:25:29;24.60;74.10
33841;DHT22;20142;28.494;-16.312;2022-09-28T11:30:37;24.60;74.20
33841;DHT22;20142;28.494;-16.312;2022-09-28T11:53:33;24.70;74.20
33841;DHT22;20142;28.494;-16.312;2022-09-28T11:58:30;24.80;73.60
33841;DHT22;20142;28.494;-16.312;2022-09-28T12:03:43;24.80;73.70
33841;DHT22;20142;28.494;-16.312;2022-09-28T12:08:53;24.80;74.00
33841;DHT22;20142;28.494;-16.312;2022-09-28T12:13:58;24.90;73.80
33841;DHT22;20142;28.494;-16.312;2022-09-28T12:19:23;25.00;74.00
33841;DHT22;20142;28.494;-16.312;2022-09-28T12:24:31;25.10;73.60
33841;DHT22;20142;28.494;-16.312;2022-09-28T12:46:33;25.20;73.00
33841;DHT22;20142;28.494;-16.312;2022-09-28T13:08:32;25.30;73.10
33841;DHT22;20142;28.494;-16.312;2022-09-28T13:19:50;25.70;72.50
33841;DHT22;20142;28.494;-16.312;2022-09-28T13:25:19;25.90;71.80
33841;DHT22;20142;28.494;-16.312;2022-09-28T13:30:22;26.00;72.40
33841;DHT22;20142;28.494;-16.312;2022-09-28T13:35:24;26.10;72.50
33841;DHT22;20142;28.494;-16.312;2022-09-28T13:46:19;26.30;72.40
33841;DHT22;20142;28.494;-16.312;2022-09-28T14:02:58;27.00;70.40
33841;DHT22;20142;28.494;-16.312;2022-09-28T14:13:09;27.50;69.60
33841;DHT22;20142;28.494;-16.312;2022-09-28T14:18:24;28.20;69.50
33841;DHT22;20142;28.494;-16.312;2022-09-28T14:39:43;29.70;64.40
33841;DHT22;20142;28.494;-16.312;2022-09-28T14:50:25;32.80;60.80
33841;DHT22;20142;28.494;-16.312;2022-09-28T14:55:37;32.40;60.00
33841;DHT22;20142;28.494;-16.312;2022-09-28T15:00:43;31.30;61.70
33841;DHT22;20142;28.494;-16.312;2022-09-28T15:05:47;31.70;61.20
33841;DHT22;20142;28.494;-16.312;2022-09-28T15:10:49;35.60;57.80
33841;DHT22;20142;28.494;-16.312;2022-09-28T15:15:59;39.80;52.90
33841;DHT22;20142;28.494;-16.312;2022-09-28T15:21:05;43.60;50.30
33841;DHT22;20142;28.494;-16.312;2022-09-28T15:26:23;44.40;47.30
33841;DHT22;20142;28.494;-16.312;2022-09-28T15:31:32;42.70;47.50
33841;DHT22;20142;28.494;-16.312;2022-09-28T15:36:40;43.10;46.30
33841;DHT22;20142;28.494;-16.312;2022-09-28T15:41:44;45.90;43.20
33841;DHT22;20142;28.494;-16.312;2022-09-28T15:46:46;41.00;43.30
33841;DHT22;20142;28.494;-16.312;2022-09-28T15:51:51;38.10;45.20
33841;DHT22;20142;28.494;-16.312;2022-09-28T15:56:58;36.80;46.80
33841;DHT22;20142;28.494;-16.312;2022-09-28T16:02:19;37.30;45.90
33841;DHT22;20142;28.494;-16.312;2022-09-28T16:07:37;39.40;45.80
33841;DHT22;20142;28.494;-16.312;2022-09-28T16:12:49;40.00;44.00
33841;DHT22;20142;28.494;-16.312;2022-09-28T16:17:59;37.30;45.70
33841;DHT22;20142;28.494;-16.312;2022-09-28T16:33:42;32.40;50.10
33841;DHT22;20142;28.494;-16.312;2022-09-28T16:38:47;32.30;50.20
33841;DHT22;20142;28.494;-16.312;2022-09-28T16:43:53;33.10;50.80
33841;DHT22;20142;28.494;-16.312;2022-09-28T16:48:59;32.20;50.10
33841;DHT22;20142;28.494;-16.312;2022-09-28T16:54:16;34.10;51.10
33841;DHT22;20142;28.494;-16.312;2022-09-28T16:59:38;32.70;50.50
33841;DHT22;20142;28.494;-16.312;2022-09-28T17:04:39;29.50;53.80
33841;DHT22;20142;28.494;-16.312;2022-09-28T17:09:41;28.00;56.90
33841;DHT22;20142;28.494;-16.312;2022-09-28T17:14:43;27.40;58.40
33841;DHT22;20142;28.494;-16.312;2022-09-28T17:19:45;27.90;60.00
33841;DHT22;20142;28.494;-16.312;2022-09-28T17:24:47;30.30;57.40
33841;DHT22;20142;28.494;-16.312;2022-09-28T17:29:49;30.10;58.00
33841;DHT22;20142;28.494;-16.312;2022-09-28T17:34:51;30.30;56.30
33841;DHT22;20142;28.494;-16.312;2022-09-28T17:39:53;30.10;56.60
33841;DHT22;20142;28.494;-16.312;2022-09-28T17:44:54;31.20;57.40
33841;DHT22;20142;28.494;-16.312;2022-09-28T17:49:56;31.60;56.60
33841;DHT22;20142;28.494;-16.312;2022-09-28T17:54:58;32.50;54.30
33841;DHT22;20142;28.494;-16.312;2022-09-28T18:00:00;31.70;54.40
33841;DHT22;20142;28.494;-16.312;2022-09-28T18:05:02;31.30;56.30
33841;DHT22;20142;28.494;-16.312;2022-09-28T18:10:05;30.70;55.10
33841;DHT22;20142;28.494;-16.312;2022-09-28T18:15:08;28.20;57.70
33841;DHT22;20142;28.494;-16.312;2022-09-28T18:20:12;26.80;60.20
33841;DHT22;20142;28.494;-16.312;2022-09-28T18:25:14;26.10;62.40
33841;DHT22;20142;28.494;-16.312;2022-09-28T18:30:16;25.30;63.40
33841;DHT22;20142;28.494;-16.312;2022-09-28T18:35:18;24.80;65.00
33841;DHT22;20142;28.494;-16.312;2022-09-28T18:40:19;24.40;65.60
33841;DHT22;20142;28.494;-16.312;2022-09-28T18:45:22;24.20;65.80
33841;DHT22;20142;28.494;-16.312;2022-09-28T18:50:23;24.10;66.20
33841;DHT22;20142;28.494;-16.312;2022-09-28T18:55:25;23.50;68.00
33841;DHT22;20142;28.494;-16.312;2022-09-28T19:00:28;23.00;68.80
33841;DHT22;20142;28.494;-16.312;2022-09-28T19:05:30;22.90;68.70
33841;DHT22;20142;28.494;-16.312;2022-09-28T19:10:33;22.70;68.80
33841;DHT22;20142;28.494;-16.312;2022-09-28T19:15:36;22.50;68.30
33841;DHT22;20142;28.494;-16.312;2022-09-28T19:20:37;22.50;68.40
